AirNav   Bose ProFlight Series 2 Headset
 
 1136 users online  

5KY4 Standard Field Airport
Elkton, Kentucky, USA

GOING TO ELKTON?


FAA INFORMATION EFFECTIVE 26 MARCH 2020

Location

FAA Identifier: 5KY4
Lat/Long: 36-48-07.6800N 087-10-36.1950W
36-48.128000N 087-10.603250W
36.8021333,-87.1767208
(estimated)
Elevation: 665 ft. / 203 m (estimated)
Variation: 00W (1985)
From city: 1 mile W of ELKTON, KY
Time zone: UTC -5 (UTC -6 during Standard Time)
Zip code: 42220

Airport Operations

Airport use: Private use. Permission required prior to landing
Activation date: 01/1962
Control tower: no
ARTCC: MEMPHIS CENTER
FSS: LOUISVILLE FLIGHT SERVICE STATION
Attendance: MON-FRI 0800-1700, ALL SAT-SUN IREG
Wind indicator: yes
Segmented circle: no

Airport Communications

WX AWOS-3 at HVC (14 nm W): 132.575 (270-886-6311)
WX ASOS at CKV (16 nm SW): 134.575 (931-431-3045)

Nearby radio navigation aids

VOR radial/distance  VOR name  Freq  Var
CKVr047/15.7CLARKSVILLE VOR/DME110.6001W
CCTr174/35.1CENTRAL CITY VORTAC109.8001W
BWGr256/36.0BOWLING GREEN VORTAC117.9002E

 
NDB name  Hdg/Dist  Freq  Var  ID
AIRBE072/12.027301WFK ..-. -.-

Airport Services

Parking: hangars and tiedowns
Airframe service: MAJOR
Powerplant service: MAJOR
Bottled oxygen: NONE
Bulk oxygen: NONE

Runway Information

Runway 13/31

Dimensions: 2930 x 75 ft. / 893 x 23 m
Surface: turf, in good condition
Runway edge markings: RY OUTLINED & MARKED WITH HARD-PLASTIC ORANGE BARRELS.
RUNWAY 13  RUNWAY 31
Latitude: 36-48.309333N36-47.946667N
Longitude: 087-10.801500W087-10.405000W
Elevation: 658.0 ft.634.0 ft.
Traffic pattern: leftleft
Obstructions: 8 ft. trees, 20 ft. from runway, 122 ft. left of centerline, 2:1 slope to clear37 ft. trees, 634 ft. from runway, 15 ft. right of centerline, 17:1 slope to clear
5.5 FT HIGH BUILDINGS 220 FT THRU 442 FT R OF RY.

Airport Ownership and Management from official FAA records

Ownership: Publicly-owned
Owner: ELKTON-TODD ARPT BOARD
200 GEORGETOWN CIR
ELKTON, KY 42220
Phone (270) 265-9536
Manager: BILL JHNSON JR.
200 GEORGETOWN CIR
ELKTON, KY 42220
Phone (270) 265-9536
FBO; JOHNSON AERONAUTICAL; CALL (270) 265-9292.

Airport Operational Statistics

Aircraft based on the field: 13
Single engine airplanes: 9
Ultralights: 4
    
Aircraft operations: avg 37/week *
62% local general aviation
36% transient general aviation
3% military
* for 12-month period ending 07 February 2006

Additional Remarks

RY 31 4 FT FENCE 519 FT FM THLD.
VARIABLE FIELD COND, WILDLIFE ACTIVITY.
TURF EXPERIENCE AND ARPT FAMILIARITY IS HIGHLY RECOMMENDED.
CELL - 270-847-6511
FOR CD CTC CAMPBELL APCH AT 270-798-6441.

Instrument Procedures

There are no published instrument procedures at 5KY4.

Some nearby airports with instrument procedures:

KHVC - Hopkinsville-Christian County Airport (14 nm W)
KCKV - Outlaw Field Airport (16 nm SW)
KHOP - Campbell Army Airfield (Fort Campbell) (17 nm SW)
4M7 - Russellville-Logan County Airport (18 nm E)
M91 - Springfield Robertson County Airport (20 nm SE)
 
Loc | Ops | Rwys | IFR | FBO | Links
Com | Nav | Svcs | Stats | Notes
Area around 5KY4 (Standard Field Airport)
 
Road maps at: MapQuest Bing Google
 
Aerial photo
No photo
 
Sectional chart

 
Airport distance calculator
Flying to Standard Field Airport? Find the distance to fly.

From to 5KY4

Sunrise and sunset
Times for 30-Mar-2020
 Local
(UTC-5)
 Zulu
(UTC)
Morning civil twilight06:1111:11
Sunrise06:3711:37
Sunset19:0900:09
Evening civil twilight19:3500:35

Current date and time
Zulu (UTC)  30-Mar-2020 18:32:19
Local (UTC-5)  30-Mar-2020 13:32:19
 
METAR
KCKV 
16nm SW 
301752Z AUTO 27004KT 10SM CLR 16/04 A3021 RMK AO2 SLP229 T01610044 10167 20072 58008
KHOP 
18nm SW 
301756Z AUTO 27005KT 10SM FEW140 SCT190 16/04 A3021 RMK AO2 SLP232 T01590043 10159 20094 57008
KM91 
20nm SE 
301815Z AUTO 27005KT 10SM CLR 16/04 A3019 RMK A01
KEOD 
20nm SW 
301758Z AUTO 33004KT 10SM FEW320 17/03 A3021 RMK AO2 SLP232 T01680026 10169 20072 58006
KM21 
25nm N 
301815Z AUTO 34008KT 10SM CLR 17/02 A3019 RMK AO2 T01660021
TAF
KCKV 
16nm SW 
301720Z 3018/3118 33004KT P6SM FEW250 FM310700 02003KT P6SM -RA OVC070 FM311100 02009KT 5SM -RA BR OVC035 FM311400 04011KT 4SM -RA BR OVC020
KHOP 
18nm SW 
301600Z 3016/3122 30006KT 9999 BKN200 QNH3005INS BECMG 3105/3106 VRB06KT 9999 SCT090 QNH3000INS BECMG 3111/3112 VRB06KT 8000 -RA BR BKN010 QNH2995INS BECMG 3117/3118 36012G18KT 8000 -DZ BR OVC015 QNH2992INS TX20/3019Z TN08/3114Z
NOTAMs
Click for the latest NOTAMs
NOTAMs are issued by the DoD/FAA and will open in a separate window not controlled by AirNav.

 

 
 

Would you like to see your business listed on this page?

 If your business provides an interesting product or service to pilots, flight crews, aircraft, or users of the Standard Field Airport, you should consider listing it here.  To start the listing process, click on the button below
 
Add a business
 

Other Pages about Standard Field Airport

Update a link
 
Copyright © AirNav, LLC. All rights reserved. Privacy Policy  Contact